createdAt,value
2022-11-21T00:01:12.487Z,4.30
2022-11-21T00:03:39.094Z,3.42
2022-11-21T00:06:05.754Z,3.97
2022-11-21T00:08:32.357Z,4.30
2022-11-21T00:10:59.817Z,4.40
2022-11-21T00:13:26.408Z,5.00
2022-11-21T00:15:52.993Z,4.13
2022-11-21T00:18:19.597Z,4.10
2022-11-21T00:20:46.166Z,4.43
2022-11-21T00:23:12.907Z,3.95
2022-11-21T00:25:39.594Z,3.22
2022-11-21T00:28:06.604Z,4.25
2022-11-21T00:30:33.386Z,4.10
2022-11-21T00:32:59.980Z,4.88
2022-11-21T00:35:27.482Z,4.22
2022-11-21T00:37:54.333Z,3.78
2022-11-21T00:40:20.932Z,3.80
2022-11-21T00:42:47.549Z,4.05
2022-11-21T00:45:15.620Z,3.10
2022-11-21T00:47:45.013Z,4.60
2022-11-21T00:50:11.641Z,3.85
2022-11-21T00:52:39.185Z,3.40
2022-11-21T00:55:07.229Z,3.25
2022-11-21T00:57:34.256Z,3.55
2022-11-21T01:00:01.268Z,3.40
2022-11-21T01:02:28.340Z,4.70
2022-11-21T01:04:55.360Z,3.50
2022-11-21T01:07:22.388Z,2.92
2022-11-21T01:09:49.445Z,4.78
2022-11-21T01:12:16.487Z,2.95
2022-11-21T01:14:43.503Z,3.90
2022-11-21T01:17:10.570Z,3.67
2022-11-21T01:19:37.589Z,4.40
2022-11-21T01:22:04.203Z,4.20
2022-11-21T01:24:30.886Z,4.00
2022-11-21T01:26:57.508Z,3.53
2022-11-21T01:29:24.274Z,4.15
2022-11-21T01:31:51.033Z,5.18
2022-11-21T01:34:18.523Z,4.10
2022-11-21T01:36:45.173Z,4.15
2022-11-21T01:39:12.432Z,2.83
2022-11-21T01:41:48.029Z,3.03
2022-11-21T01:44:46.260Z,3.28
2022-11-21T01:47:13.278Z,2.72
2022-11-21T01:49:40.894Z,3.13
2022-11-21T01:52:28.829Z,3.55
2022-11-21T01:55:09.016Z,2.85
2022-11-21T01:57:42.489Z,3.08
2022-11-21T02:00:15.262Z,2.83
2022-11-21T02:02:51.221Z,3.65
2022-11-21T02:05:23.864Z,4.30
2022-11-21T02:07:54.603Z,2.88
2022-11-21T02:10:22.927Z,3.72
2022-11-21T02:12:51.798Z,3.08
2022-11-21T02:15:21.246Z,3.40
2022-11-21T02:17:47.840Z,3.38
2022-11-21T02:20:17.353Z,3.67
2022-11-21T02:22:44.539Z,4.05
2022-11-21T02:25:38.708Z,3.78
2022-11-21T02:28:11.456Z,3.97
2022-11-21T02:30:39.776Z,4.50
2022-11-21T02:33:07.195Z,3.30
2022-11-21T02:35:34.361Z,3.90
2022-11-21T02:38:12.378Z,3.30
2022-11-21T02:40:42.703Z,4.68
2022-11-21T02:43:18.472Z,3.92
2022-11-21T02:45:46.149Z,4.20
2022-11-21T02:48:13.338Z,3.30
2022-11-21T02:50:41.963Z,4.35
2022-11-21T02:53:10.665Z,4.72
2022-11-21T02:55:38.204Z,4.32
2022-11-21T02:58:05.882Z,3.20
2022-11-21T03:00:33.809Z,3.50
2022-11-21T03:03:00.818Z,4.93
2022-11-21T03:05:27.937Z,3.13
2022-11-21T03:07:55.040Z,3.47
2022-11-21T03:10:22.310Z,3.28
2022-11-21T03:12:49.336Z,3.50
2022-11-21T03:15:16.397Z,3.60
2022-11-21T03:17:43.816Z,3.53
2022-11-21T03:20:11.392Z,2.97
2022-11-21T03:22:38.464Z,3.80
2022-11-21T03:25:05.691Z,3.45
2022-11-21T03:27:32.698Z,3.05
2022-11-21T03:29:59.732Z,3.22
2022-11-21T03:32:26.795Z,2.70
2022-11-21T03:34:53.808Z,3.00
2022-11-21T03:37:20.881Z,3.92
2022-11-21T03:39:47.929Z,3.03
2022-11-21T03:42:14.997Z,3.45
2022-11-21T03:44:42.503Z,2.83
2022-11-21T03:47:09.529Z,2.80
2022-11-21T03:49:36.572Z,3.03
2022-11-21T03:52:03.618Z,3.10
2022-11-21T03:54:30.802Z,2.70
2022-11-21T03:56:57.981Z,2.35
2022-11-21T03:59:26.121Z,2.63
2022-11-21T04:01:53.153Z,3.45
2022-11-21T04:04:20.196Z,3.03
2022-11-21T04:06:47.962Z,2.63
2022-11-21T04:09:14.972Z,2.97
2022-11-21T04:11:41.985Z,2.28
2022-11-21T04:14:09.026Z,3.33
2022-11-21T04:16:36.069Z,3.15
2022-11-21T04:19:03.328Z,2.60
2022-11-21T04:21:30.344Z,2.95
2022-11-21T04:23:57.379Z,3.25
2022-11-21T04:26:24.497Z,3.50
2022-11-21T04:28:51.558Z,3.58
2022-11-21T04:31:18.709Z,3.38
2022-11-21T04:33:45.718Z,3.10
2022-11-21T04:36:13.005Z,3.50
2022-11-21T04:38:40.044Z,3.65
2022-11-21T04:41:07.082Z,3.10
2022-11-21T04:43:34.174Z,2.80
2022-11-21T04:46:01.320Z,3.00
2022-11-21T04:48:28.425Z,3.80
2022-11-21T04:50:55.509Z,3.70
2022-11-21T04:53:22.528Z,2.97
2022-11-21T04:55:49.541Z,2.55
2022-11-21T04:58:16.592Z,2.65
2022-11-21T05:00:43.779Z,2.47
2022-11-21T05:03:10.899Z,2.80
2022-11-21T05:05:38.007Z,3.30
2022-11-21T05:08:05.163Z,2.55
2022-11-21T05:10:52.193Z,2.80
2022-11-21T05:13:22.357Z,4.40
2022-11-21T05:15:51.688Z,3.28
2022-11-21T05:18:19.937Z,3.65
2022-11-21T05:20:46.975Z,2.38
2022-11-21T05:23:14.245Z,2.80
2022-11-21T05:25:41.286Z,2.80
2022-11-21T05:28:08.326Z,3.03
2022-11-21T05:30:35.506Z,3.60
2022-11-21T05:33:02.653Z,3.15
2022-11-21T05:35:29.675Z,3.13
2022-11-21T05:37:57.577Z,2.80
2022-11-21T05:40:25.141Z,2.25
2022-11-21T05:43:10.836Z,3.27
2022-11-21T05:45:37.939Z,3.10
2022-11-21T05:48:07.825Z,3.00
2022-11-21T05:50:35.808Z,3.47
2022-11-21T05:53:03.962Z,3.55
2022-11-21T05:55:31.692Z,2.58
2022-11-21T05:58:00.389Z,3.97
2022-11-21T06:00:27.977Z,3.08
2022-11-21T06:03:13.634Z,2.70
2022-11-21T06:05:40.731Z,3.40
2022-11-21T06:08:07.776Z,3.33
2022-11-21T06:10:34.772Z,3.95
2022-11-21T06:13:03.230Z,3.67
2022-11-21T06:15:30.301Z,3.15
2022-11-21T06:18:01.765Z,3.80
2022-11-21T06:20:28.777Z,3.00
2022-11-21T06:22:55.840Z,3.25
2022-11-21T06:25:22.836Z,4.28
2022-11-21T06:27:49.856Z,4.05
2022-11-21T06:30:22.012Z,3.05
2022-11-21T06:32:49.361Z,3.33
2022-11-21T06:35:16.508Z,2.80
2022-11-21T06:37:43.516Z,2.80
2022-11-21T06:40:11.079Z,3.13
2022-11-21T06:42:38.602Z,3.00
2022-11-21T06:45:05.948Z,3.17
2022-11-21T06:47:36.454Z,2.47
2022-11-21T06:50:03.596Z,3.28
2022-11-21T06:52:33.617Z,2.83
2022-11-21T06:55:00.693Z,3.10
2022-11-21T06:57:27.721Z,2.30
2022-11-21T06:59:54.717Z,2.85
2022-11-21T07:02:21.762Z,3.28
2022-11-21T07:04:48.891Z,5.10
2022-11-21T07:07:16.008Z,7.57
2022-11-21T07:09:44.701Z,5.43
2022-11-21T07:12:37.776Z,5.85
2022-11-21T07:15:05.111Z,9.35
2022-11-21T07:17:32.145Z,3.88
2022-11-21T07:19:59.251Z,3.25
2022-11-21T07:22:26.248Z,11.25
2022-11-21T07:24:53.307Z,5.82
2022-11-21T07:27:20.316Z,7.10
2022-11-21T07:29:47.325Z,5.43
2022-11-21T07:32:15.116Z,8.38
2022-11-21T07:34:42.183Z,5.55
2022-11-21T07:37:09.337Z,3.67
2022-11-21T07:39:36.399Z,5.70
2022-11-21T07:42:03.451Z,2.97
2022-11-21T07:44:30.516Z,3.50
2022-11-21T07:46:57.650Z,4.45
2022-11-21T07:49:24.680Z,7.10
2022-11-21T07:51:51.716Z,16.07
2022-11-21T07:54:18.761Z,10.32
2022-11-21T07:56:45.833Z,12.73
2022-11-21T07:59:12.951Z,11.68
2022-11-21T08:01:45.025Z,7.05
2022-11-21T08:04:12.567Z,6.20
2022-11-21T08:06:39.583Z,5.13
2022-11-21T08:09:06.590Z,5.00
2022-11-21T08:11:33.624Z,5.30
2022-11-21T08:14:00.653Z,3.97
2022-11-21T08:16:28.197Z,3.22
2022-11-21T08:18:55.452Z,3.15
2022-11-21T08:21:22.477Z,3.27
2022-11-21T08:23:49.532Z,2.97
2022-11-21T08:26:16.840Z,4.55
2022-11-21T08:28:43.914Z,3.80
2022-11-21T08:31:11.063Z,2.90
2022-11-21T08:33:38.110Z,3.90
2022-11-21T08:36:05.876Z,6.72
2022-11-21T08:38:33.256Z,5.50
2022-11-21T08:41:18.897Z,2.43
2022-11-21T08:43:47.043Z,2.80
2022-11-21T08:46:14.121Z,3.73
2022-11-21T08:48:41.154Z,2.30
2022-11-21T08:51:08.234Z,2.90
2022-11-21T08:53:35.298Z,3.20
2022-11-21T08:56:04.368Z,2.30
2022-11-21T08:58:31.737Z,1.90
2022-11-21T09:01:00.250Z,1.80
2022-11-21T09:03:31.142Z,1.80
2022-11-21T09:05:58.821Z,2.03
2022-11-21T09:08:25.995Z,1.80
2022-11-21T09:10:53.132Z,2.23
2022-11-21T09:13:20.261Z,2.35
2022-11-21T09:16:05.983Z,2.17
2022-11-21T09:18:33.056Z,2.20
2022-11-21T09:21:00.269Z,1.80
2022-11-21T09:23:27.323Z,1.63
2022-11-21T09:25:54.349Z,1.87
2022-11-21T09:28:21.354Z,2.17
2022-11-21T09:30:48.369Z,2.50
2022-11-21T09:33:19.340Z,1.77
2022-11-21T09:35:46.445Z,2.03
2022-11-21T09:38:13.530Z,1.50
2022-11-21T09:40:44.163Z,1.53
2022-11-21T09:43:19.513Z,1.70
2022-11-21T09:45:51.131Z,1.70
2022-11-21T09:48:20.162Z,1.60
2022-11-21T09:50:56.122Z,1.60
2022-11-21T09:53:23.289Z,1.53
2022-11-21T09:55:52.583Z,1.07
2022-11-21T09:58:31.839Z,1.30
2022-11-21T10:00:59.403Z,1.70
2022-11-21T10:03:27.998Z,0.97
2022-11-21T10:06:04.442Z,1.33
2022-11-21T10:08:51.075Z,1.30
2022-11-21T10:11:30.321Z,1.03
2022-11-21T10:14:16.222Z,1.40
2022-11-21T10:16:46.332Z,1.00
2022-11-21T10:19:19.586Z,1.20
2022-11-21T10:21:49.602Z,1.47
2022-11-21T10:24:16.673Z,1.00
2022-11-21T10:26:52.869Z,1.93
2022-11-21T10:29:46.230Z,2.17
2022-11-21T10:32:27.363Z,1.47
2022-11-21T10:34:58.771Z,1.10
2022-11-21T10:37:38.777Z,1.10
2022-11-21T10:40:09.833Z,1.40
2022-11-21T10:42:45.852Z,1.73
2022-11-21T10:45:16.668Z,1.13
2022-11-21T10:47:44.609Z,1.00
2022-11-21T10:50:30.440Z,1.07
2022-11-21T10:53:25.508Z,1.00
2022-11-21T10:55:58.262Z,1.13
2022-11-21T10:58:34.041Z,1.50
2022-11-21T11:01:01.188Z,1.30
2022-11-21T11:03:29.052Z,1.17
2022-11-21T11:06:00.012Z,1.07
2022-11-21T11:08:28.604Z,1.10
2022-11-21T11:11:02.057Z,1.40
2022-11-21T11:13:46.209Z,1.10
2022-11-21T11:16:15.265Z,1.53
2022-11-21T11:18:47.746Z,1.43
2022-11-21T11:21:17.771Z,1.93
2022-11-21T11:23:45.135Z,2.97
2022-11-21T11:26:23.174Z,1.40
2022-11-21T11:28:50.458Z,1.60
2022-11-21T11:31:17.802Z,1.77
2022-11-21T11:33:47.945Z,1.80
2022-11-21T11:36:37.384Z,5.70
2022-11-21T11:39:11.922Z,2.37
2022-11-21T11:42:17.037Z,2.80
2022-11-21T11:45:12.147Z,2.20
2022-11-21T11:47:50.265Z,2.30
2022-11-21T11:50:24.692Z,2.07
2022-11-21T11:52:51.743Z,2.50
2022-11-21T11:55:27.488Z,1.73
2022-11-21T11:57:55.743Z,1.80
2022-11-21T12:00:28.434Z,1.63
2022-11-21T12:02:58.266Z,1.60
2022-11-21T12:05:29.252Z,1.67
2022-11-21T12:08:40.279Z,2.70
2022-11-21T12:11:09.921Z,3.70
2022-11-21T12:13:37.611Z,2.27
2022-11-21T12:16:13.232Z,2.40
2022-11-21T12:19:10.248Z,3.10
2022-11-21T12:21:37.345Z,1.73
2022-11-21T12:24:04.934Z,2.00
2022-11-21T12:26:48.289Z,2.50
2022-11-21T12:29:15.495Z,1.40
2022-11-21T12:31:51.654Z,1.90
2022-11-21T12:34:29.884Z,1.87
2022-11-21T12:37:00.649Z,1.70
2022-11-21T12:39:27.902Z,1.70
2022-11-21T12:42:13.806Z,1.80
2022-11-21T12:44:59.118Z,2.20
2022-11-21T12:47:52.310Z,2.43
2022-11-21T12:50:50.029Z,2.37
2022-11-21T12:53:50.378Z,2.05
2022-11-21T12:56:26.443Z,1.80
2022-11-21T12:58:54.466Z,2.57
2022-11-21T13:01:29.465Z,1.73
2022-11-21T13:03:56.568Z,1.70
2022-11-21T13:06:25.448Z,2.20
2022-11-21T13:08:53.587Z,2.33
2022-11-21T13:11:48.139Z,1.42
2022-11-21T13:14:33.265Z,2.00
2022-11-21T13:17:04.668Z,1.60
2022-11-21T13:19:53.491Z,1.33
2022-11-21T13:22:35.920Z,1.90
2022-11-21T13:25:03.833Z,1.50
2022-11-21T13:27:36.454Z,1.37
2022-11-21T13:30:12.629Z,1.30
2022-11-21T13:32:44.127Z,1.63
2022-11-21T13:35:17.064Z,1.40
2022-11-21T13:37:50.257Z,1.80
2022-11-21T13:40:32.663Z,2.07
2022-11-21T13:46:02.747Z,2.03
2022-11-21T13:48:36.332Z,1.50
2022-11-21T13:51:03.348Z,1.90
2022-11-21T13:53:33.369Z,1.87
2022-11-21T13:56:08.499Z,1.83
2022-11-21T13:58:54.603Z,1.40
2022-11-21T14:01:21.706Z,1.40
2022-11-21T14:03:52.205Z,1.23
2022-11-21T14:06:32.611Z,1.47
2022-11-21T14:09:08.764Z,1.47
2022-11-21T14:11:50.023Z,1.63
2022-11-21T14:14:32.030Z,1.77
2022-11-21T14:17:05.913Z,2.50
2022-11-21T14:19:34.730Z,1.93
2022-11-21T14:22:02.167Z,1.50
2022-11-21T14:24:29.371Z,3.50
2022-11-21T14:26:56.591Z,1.47
2022-11-21T14:29:28.664Z,1.47
2022-11-21T14:31:56.246Z,1.73
2022-11-21T14:34:28.497Z,1.40
2022-11-21T14:36:56.736Z,2.10
2022-11-21T14:39:44.602Z,1.50
2022-11-21T14:42:13.900Z,1.73
2022-11-21T14:44:40.920Z,2.13
2022-11-21T14:47:17.270Z,1.50
2022-11-21T14:49:50.663Z,1.93
2022-11-21T14:52:19.147Z,1.85
2022-11-21T14:55:13.539Z,2.25
2022-11-21T14:57:38.430Z,1.80
2022-11-21T15:00:07.248Z,2.03
2022-11-21T15:02:34.730Z,2.23
2022-11-21T15:05:03.285Z,2.73
2022-11-21T15:07:36.402Z,3.70
2022-11-21T15:13:00.271Z,2.17
2022-11-21T15:15:27.415Z,1.80
2022-11-21T15:18:25.873Z,2.72
2022-11-21T15:20:49.900Z,2.35
2022-11-21T15:23:38.219Z,2.10
2022-11-21T15:26:05.274Z,2.03
2022-11-21T15:28:32.332Z,2.20
2022-11-21T15:31:14.955Z,6.03
2022-11-21T15:36:42.036Z,5.55
2022-11-21T15:39:19.960Z,5.20
2022-11-21T15:41:47.110Z,3.30
2022-11-21T15:44:14.190Z,2.88
2022-11-21T15:46:44.975Z,2.80
2022-11-21T15:49:32.011Z,3.40
2022-11-21T15:52:09.601Z,2.50
2022-11-21T15:54:37.070Z,5.13
2022-11-21T15:57:04.237Z,22.77
2022-11-21T15:57:15.502Z,9.35
2022-11-21T15:59:31.747Z,8.73
2022-11-21T16:01:59.028Z,7.10
2022-11-21T16:04:26.490Z,7.35
2022-11-21T16:06:56.717Z,7.97
2022-11-21T16:09:23.903Z,5.00
2022-11-21T16:11:50.928Z,4.32
2022-11-21T16:14:18.421Z,6.07
2022-11-21T16:16:47.357Z,2.05
2022-11-21T16:19:15.401Z,1.85
2022-11-21T16:21:42.563Z,2.22
2022-11-21T16:24:09.646Z,2.42
2022-11-21T16:26:36.810Z,4.85
2022-11-21T16:29:06.817Z,2.30
2022-11-21T16:31:34.621Z,3.17
2022-11-21T16:34:01.749Z,2.08
2022-11-21T16:36:29.769Z,2.10
2022-11-21T16:39:07.700Z,1.70
2022-11-21T16:41:36.238Z,1.85
2022-11-21T16:44:03.398Z,1.70
2022-11-21T16:46:30.426Z,2.40
2022-11-21T16:49:01.577Z,1.60
2022-11-21T16:51:28.932Z,1.88
2022-11-21T16:53:57.063Z,4.28
2022-11-21T16:56:24.328Z,1.80
2022-11-21T16:58:51.454Z,1.98
2022-11-21T17:01:20.073Z,1.50
2022-11-21T17:03:48.330Z,1.50
2022-11-21T17:06:17.316Z,1.35
2022-11-21T17:08:47.108Z,1.90
2022-11-21T17:11:22.017Z,1.80
2022-11-21T17:13:50.030Z,1.77
2022-11-21T17:16:18.186Z,2.88
2022-11-21T17:18:45.370Z,2.00
2022-11-21T17:21:13.865Z,1.90
2022-11-21T17:23:41.928Z,1.73
2022-11-21T17:26:10.075Z,2.50
2022-11-21T17:28:41.056Z,2.20
2022-11-21T17:31:13.912Z,4.20
2022-11-21T17:33:41.289Z,2.70
2022-11-21T17:36:11.487Z,3.35
2022-11-21T17:38:39.766Z,3.00
2022-11-21T17:41:08.149Z,4.40
2022-11-21T17:43:35.310Z,3.63
2022-11-21T17:46:09.135Z,2.40
2022-11-21T17:48:37.430Z,2.70
2022-11-21T17:51:09.350Z,3.10
2022-11-21T17:53:37.899Z,2.50
2022-11-21T17:56:06.138Z,2.80
2022-11-21T17:58:33.778Z,3.83
2022-11-21T18:01:02.044Z,4.32
2022-11-21T18:03:29.813Z,6.70
2022-11-21T18:06:07.945Z,3.33
2022-11-21T18:08:36.267Z,3.47
2022-11-21T18:11:03.908Z,8.90
2022-11-21T18:13:31.541Z,3.80
2022-11-21T18:16:02.767Z,4.18
2022-11-21T18:18:29.814Z,3.60
2022-11-21T18:21:02.465Z,2.45
2022-11-21T18:23:29.674Z,3.50
2022-11-21T18:25:56.719Z,3.40
2022-11-21T18:28:23.733Z,4.00
2022-11-21T18:30:50.840Z,3.75
2022-11-21T18:33:19.084Z,3.20
2022-11-21T18:35:47.022Z,3.25
2022-11-21T18:38:40.276Z,3.42
2022-11-21T18:41:15.017Z,4.60
2022-11-21T18:43:43.357Z,3.17
2022-11-21T18:46:12.081Z,3.22
2022-11-21T18:49:01.392Z,3.05
2022-11-21T18:51:30.545Z,2.97
2022-11-21T18:53:59.131Z,3.20
2022-11-21T18:56:26.327Z,3.10
2022-11-21T18:58:58.382Z,2.80
2022-11-21T19:01:27.037Z,2.42
2022-11-21T19:03:54.634Z,2.70
2022-11-21T19:06:22.710Z,2.97
2022-11-21T19:08:50.956Z,2.97
2022-11-21T19:11:19.862Z,4.25
2022-11-21T19:13:47.711Z,3.80
2022-11-21T19:16:16.389Z,3.40
2022-11-21T19:18:59.827Z,4.10
2022-11-21T19:21:35.914Z,3.00
2022-11-21T19:24:03.328Z,4.13
2022-11-21T19:26:31.754Z,3.42
2022-11-21T19:28:59.390Z,3.50
2022-11-21T19:31:26.498Z,3.60
2022-11-21T19:33:53.542Z,3.47
2022-11-21T19:36:21.620Z,3.42
2022-11-21T19:38:51.080Z,3.55
2022-11-21T19:41:22.766Z,4.10
2022-11-21T19:43:50.922Z,3.75
2022-11-21T19:46:19.204Z,3.50
2022-11-21T19:48:50.139Z,2.72
2022-11-21T19:51:17.981Z,3.42
2022-11-21T19:53:45.554Z,3.70
2022-11-21T19:56:14.529Z,3.40
2022-11-21T19:58:42.178Z,3.30
2022-11-21T20:01:13.366Z,3.40
2022-11-21T20:03:41.782Z,3.20
2022-11-21T20:06:10.116Z,3.30
2022-11-21T20:08:37.196Z,3.35
2022-11-21T20:11:15.491Z,3.17
2022-11-21T20:13:43.836Z,4.45
2022-11-21T20:16:27.375Z,2.90
2022-11-21T20:18:55.935Z,2.75
2022-11-21T20:21:23.282Z,3.65
2022-11-21T20:23:51.406Z,4.00
2022-11-21T20:26:19.186Z,3.58
2022-11-21T20:28:46.419Z,2.95
2022-11-21T20:31:18.151Z,2.95
2022-11-21T20:33:50.014Z,3.15
2022-11-21T20:36:19.317Z,3.20
2022-11-21T20:38:53.944Z,3.40
2022-11-21T20:41:21.678Z,2.92
2022-11-21T20:46:35.874Z,3.15
2022-11-21T20:49:02.925Z,3.10
2022-11-21T20:54:17.583Z,2.80
2022-11-21T20:56:44.774Z,2.97
2022-11-21T20:59:12.038Z,3.67
2022-11-21T21:01:39.268Z,2.72
2022-11-21T21:04:06.807Z,3.00
2022-11-21T21:06:33.832Z,3.05
2022-11-21T21:09:00.912Z,2.88
2022-11-21T21:11:51.060Z,2.38
2022-11-21T21:14:15.099Z,2.63
2022-11-21T21:16:43.874Z,2.42
2022-11-21T21:19:10.899Z,1.88
2022-11-21T21:21:40.040Z,2.70
2022-11-21T21:24:08.073Z,2.70
2022-11-21T21:26:41.905Z,2.35
2022-11-21T21:29:10.935Z,2.40
2022-11-21T21:31:37.950Z,2.85
2022-11-21T21:34:05.010Z,2.28
2022-11-21T21:36:32.415Z,2.50
2022-11-21T21:39:00.464Z,3.40
2022-11-21T21:41:28.330Z,3.35
2022-11-21T21:43:56.084Z,2.97
2022-11-21T21:46:24.312Z,2.90
2022-11-21T21:48:56.046Z,2.60
2022-11-21T21:51:26.722Z,2.80
2022-11-21T21:53:54.558Z,2.35
2022-11-21T21:56:22.339Z,3.40
2022-11-21T21:58:50.088Z,2.50
2022-11-21T22:01:18.248Z,2.65
2022-11-21T22:03:45.957Z,2.25
2022-11-21T22:06:17.212Z,3.72
2022-11-21T22:08:44.853Z,2.70
2022-11-21T22:11:14.123Z,2.30
2022-11-21T22:13:42.166Z,2.55
2022-11-21T22:16:09.870Z,2.20
2022-11-21T22:18:36.902Z,2.53
2022-11-21T22:21:13.303Z,2.90
2022-11-21T22:23:51.215Z,2.60
2022-11-21T22:26:27.658Z,2.30
2022-11-21T22:28:54.681Z,3.10
2022-11-21T22:31:21.819Z,2.70
2022-11-21T22:33:49.301Z,2.45
2022-11-21T22:36:17.390Z,2.40
2022-11-21T22:38:44.750Z,2.88
2022-11-21T22:41:16.515Z,2.17
2022-11-21T22:43:44.199Z,2.03
2022-11-21T22:46:13.224Z,2.60
2022-11-21T22:48:40.715Z,2.13
2022-11-21T22:51:08.037Z,2.83
2022-11-21T22:53:39.928Z,2.88
2022-11-21T22:56:08.005Z,2.20
2022-11-21T22:58:36.455Z,2.30
2022-11-21T23:01:05.258Z,2.38
2022-11-21T23:03:33.345Z,2.35
2022-11-21T23:06:26.607Z,2.42
2022-11-21T23:08:54.356Z,2.10
2022-11-21T23:11:22.819Z,2.30
2022-11-21T23:13:50.950Z,2.05
2022-11-21T23:16:17.985Z,2.38
2022-11-21T23:18:45.094Z,2.35
2022-11-21T23:21:13.068Z,2.35
2022-11-21T23:23:40.405Z,2.20
2022-11-21T23:26:07.659Z,2.80
2022-11-21T23:28:34.866Z,2.85
2022-11-21T23:31:01.917Z,2.88
2022-11-21T23:33:29.114Z,2.35
2022-11-21T23:35:56.168Z,2.13
2022-11-21T23:38:23.233Z,2.50
2022-11-21T23:40:50.507Z,3.30
2022-11-21T23:43:18.248Z,2.60
2022-11-21T23:45:45.796Z,2.55
2022-11-21T23:48:12.846Z,2.00
2022-11-21T23:50:39.957Z,2.47
2022-11-21T23:53:07.297Z,3.03
2022-11-21T23:55:34.696Z,2.97
2022-11-21T23:58:02.024Z,3.20
